createdAt,value
2023-05-13T00:01:50.002Z,84.07
2023-05-13T00:04:58.308Z,84.10
2023-05-13T00:08:08.069Z,84.13
2023-05-13T00:11:16.243Z,83.70
2023-05-13T00:14:24.521Z,84.35
2023-05-13T00:17:32.782Z,83.85
2023-05-13T00:20:41.565Z,84.77
2023-05-13T00:23:51.077Z,84.96
2023-05-13T00:26:59.468Z,84.45
2023-05-13T00:30:09.770Z,84.50
2023-05-13T00:33:18.077Z,84.89
2023-05-13T00:36:27.474Z,84.33
2023-05-13T00:39:37.372Z,84.79
2023-05-13T00:42:46.333Z,84.88
2023-05-13T00:45:54.789Z,85.20
2023-05-13T00:49:06.628Z,85.00
2023-05-13T00:52:15.131Z,84.81
2023-05-13T00:55:25.463Z,84.62
2023-05-13T00:58:34.052Z,84.72
2023-05-13T01:02:05.356Z,85.43
2023-05-13T01:05:27.938Z,84.39
2023-05-13T01:08:45.236Z,85.18
2023-05-13T01:11:58.089Z,85.59
2023-05-13T01:15:11.171Z,85.83
2023-05-13T01:18:26.372Z,86.10
2023-05-13T01:21:39.983Z,86.12
2023-05-13T01:24:48.317Z,85.82
2023-05-13T01:27:57.280Z,85.92
2023-05-13T01:31:10.855Z,85.81
2023-05-13T01:34:22.093Z,86.14
2023-05-13T01:37:32.579Z,86.25
2023-05-13T01:40:42.838Z,86.80
2023-05-13T01:43:51.479Z,86.43
2023-05-13T01:47:00.038Z,85.87
2023-05-13T01:50:10.163Z,86.21
2023-05-13T01:53:20.363Z,86.37
2023-05-13T01:56:31.250Z,86.54
2023-05-13T01:59:39.850Z,86.27
2023-05-13T02:02:48.199Z,86.82
2023-05-13T02:05:56.517Z,87.35
2023-05-13T02:09:06.831Z,86.57
2023-05-13T02:12:15.073Z,87.24
2023-05-13T02:15:23.298Z,88.62
2023-05-13T02:18:31.653Z,87.72
2023-05-13T02:21:40.666Z,86.90
2023-05-13T02:24:50.458Z,87.37
2023-05-13T02:27:59.669Z,86.88
2023-05-13T02:34:28.327Z,86.73
2023-05-13T02:37:36.466Z,86.44
2023-05-13T02:40:48.251Z,86.14
2023-05-13T02:43:58.876Z,87.06
2023-05-13T02:47:07.781Z,87.31
2023-05-13T02:50:16.307Z,87.84
2023-05-13T02:53:25.973Z,88.27
2023-05-13T02:56:39.234Z,87.94
2023-05-13T02:59:47.584Z,88.15
2023-05-13T03:02:56.336Z,87.87
2023-05-13T03:06:05.028Z,88.66
2023-05-13T03:09:13.244Z,88.21
2023-05-13T03:12:23.098Z,89.07
2023-05-13T03:15:31.775Z,89.48
2023-05-13T03:18:40.213Z,89.49
2023-05-13T03:21:48.718Z,88.52
2023-05-13T03:24:58.310Z,87.90
2023-05-13T03:28:13.417Z,89.13
2023-05-13T03:31:25.030Z,89.02
2023-05-13T03:34:36.212Z,88.23
2023-05-13T03:37:45.214Z,88.05
2023-05-13T03:40:55.543Z,88.64
2023-05-13T03:44:05.482Z,89.02
2023-05-13T03:47:14.406Z,88.23
2023-05-13T03:50:22.837Z,88.45
2023-05-13T03:53:32.948Z,88.88
2023-05-13T03:56:41.226Z,89.74
2023-05-13T03:59:51.016Z,89.56
2023-05-13T04:03:00.428Z,88.71
2023-05-13T04:06:09.088Z,89.28
2023-05-13T04:09:17.810Z,88.98
2023-05-13T04:12:25.880Z,88.87
2023-05-13T04:15:35.336Z,88.32
2023-05-13T04:18:43.479Z,89.62
2023-05-13T04:21:51.914Z,88.26
2023-05-13T04:25:00.061Z,88.82
2023-05-13T04:28:08.276Z,88.92
2023-05-13T04:31:22.508Z,88.35
2023-05-13T04:34:30.863Z,88.42
2023-05-13T04:37:39.664Z,88.37
2023-05-13T04:40:50.605Z,87.77
2023-05-13T04:44:06.293Z,88.89
2023-05-13T04:47:16.862Z,87.76
2023-05-13T04:50:26.089Z,88.30
2023-05-13T04:53:36.023Z,87.84
2023-05-13T04:56:46.653Z,87.83
2023-05-13T04:59:55.239Z,88.16
2023-05-13T05:03:04.977Z,87.58
2023-05-13T05:06:13.804Z,87.90
2023-05-13T05:09:23.062Z,87.51
2023-05-13T05:12:33.398Z,87.92
2023-05-13T05:15:41.710Z,88.55
2023-05-13T05:18:51.970Z,88.52
2023-05-13T05:22:01.018Z,89.36
2023-05-13T05:25:11.658Z,89.38
2023-05-13T05:28:20.209Z,89.53
2023-05-13T05:31:28.647Z,88.46
2023-05-13T05:34:40.991Z,89.59
2023-05-13T05:37:50.948Z,89.64
2023-05-13T05:40:59.378Z,88.77
2023-05-13T05:44:09.133Z,87.54
2023-05-13T05:47:17.936Z,87.73
2023-05-13T05:50:29.432Z,88.42
2023-05-13T05:53:40.909Z,88.05
2023-05-13T05:56:50.069Z,87.91
2023-05-13T05:59:58.345Z,88.30
2023-05-13T06:03:06.718Z,89.03
2023-05-13T06:06:16.944Z,89.23
2023-05-13T06:09:26.060Z,88.89
2023-05-13T06:12:35.273Z,87.92
2023-05-13T06:15:43.644Z,88.86
2023-05-13T06:18:53.448Z,88.73
2023-05-13T06:22:04.279Z,88.67
2023-05-13T06:25:12.778Z,88.20
2023-05-13T06:28:22.632Z,87.82
2023-05-13T06:31:32.167Z,87.56
2023-05-13T06:34:42.420Z,87.03
2023-05-13T06:37:52.070Z,87.17
2023-05-13T06:41:00.991Z,86.46
2023-05-13T06:44:16.021Z,86.61
2023-05-13T06:47:27.440Z,86.11
2023-05-13T06:50:35.896Z,86.85
2023-05-13T06:53:45.352Z,87.26
2023-05-13T06:56:53.619Z,86.57
2023-05-13T07:00:02.797Z,87.04
2023-05-13T07:03:10.927Z,87.41
2023-05-13T07:06:19.084Z,86.65
2023-05-13T07:09:28.603Z,85.27
2023-05-13T07:12:37.018Z,85.43
2023-05-13T07:15:45.707Z,84.78
2023-05-13T07:18:54.211Z,84.73
2023-05-13T07:22:02.683Z,85.16
2023-05-13T07:25:12.584Z,85.25
2023-05-13T07:28:21.029Z,85.73
2023-05-13T07:31:30.480Z,84.84
2023-05-13T07:34:38.918Z,85.13
2023-05-13T07:37:47.525Z,84.42
2023-05-13T07:40:57.114Z,84.82
2023-05-13T07:44:05.944Z,84.83
2023-05-13T07:47:14.738Z,85.24
2023-05-13T07:50:22.960Z,85.40
2023-05-13T07:53:31.567Z,85.08
2023-05-13T07:56:44.488Z,84.20
2023-05-13T07:59:54.264Z,83.56
2023-05-13T08:03:05.445Z,83.80
2023-05-13T08:06:14.649Z,83.87
2023-05-13T08:09:23.330Z,82.68
2023-05-13T08:12:33.611Z,82.50
2023-05-13T08:15:43.268Z,81.82
2023-05-13T08:18:52.140Z,82.42
2023-05-13T08:22:01.073Z,82.05
2023-05-13T08:25:11.561Z,80.31
2023-05-13T08:28:22.071Z,79.22
2023-05-13T08:31:32.487Z,79.18
2023-05-13T08:34:41.279Z,78.58
2023-05-13T08:37:49.984Z,75.95
2023-05-13T08:40:58.585Z,71.82
2023-05-13T08:44:13.399Z,68.17
2023-05-13T08:47:38.438Z,69.79
2023-05-13T08:50:47.608Z,71.48
2023-05-13T08:53:57.590Z,74.08
2023-05-13T08:57:06.935Z,74.88
2023-05-13T09:00:19.980Z,75.03
2023-05-13T09:03:30.131Z,74.53
2023-05-13T09:06:38.601Z,72.87
2023-05-13T09:09:46.961Z,71.71
2023-05-13T09:12:56.701Z,75.31
2023-05-13T09:16:07.444Z,76.71
2023-05-13T09:19:16.322Z,76.68
2023-05-13T09:22:24.841Z,78.42
2023-05-13T09:25:33.681Z,77.36
2023-05-13T09:28:42.172Z,75.46
2023-05-13T09:31:54.734Z,74.67
2023-05-13T09:35:16.805Z,71.54
2023-05-13T09:38:31.554Z,67.94
2023-05-13T09:41:39.882Z,67.11
2023-05-13T09:44:49.798Z,68.95
2023-05-13T09:47:59.510Z,68.87
2023-05-13T09:51:07.916Z,68.83
2023-05-13T09:54:16.188Z,71.29
2023-05-13T09:57:24.358Z,73.57
2023-05-13T10:00:34.351Z,73.05
2023-05-13T10:03:46.033Z,73.85
2023-05-13T10:06:56.973Z,73.76
2023-05-13T10:10:09.598Z,74.69
2023-05-13T10:13:24.559Z,75.55
2023-05-13T10:16:33.884Z,75.15
2023-05-13T10:19:44.189Z,76.01
2023-05-13T10:22:53.616Z,76.02
2023-05-13T10:26:03.069Z,76.30
2023-05-13T10:29:12.551Z,75.28
2023-05-13T10:32:21.307Z,75.64
2023-05-13T10:35:38.162Z,76.20
2023-05-13T10:39:14.269Z,76.68
2023-05-13T10:42:47.935Z,76.29
2023-05-13T10:46:02.641Z,76.60
2023-05-13T10:49:16.645Z,75.75
2023-05-13T10:52:44.002Z,75.89
2023-05-13T10:55:59.634Z,75.41
2023-05-13T10:59:08.167Z,75.52
2023-05-13T11:02:23.353Z,74.46
2023-05-13T11:05:34.718Z,75.10
2023-05-13T11:08:46.738Z,76.40
2023-05-13T11:11:57.135Z,76.63
2023-05-13T11:15:23.261Z,75.17
2023-05-13T11:18:32.241Z,76.69
2023-05-13T11:21:41.353Z,76.49
2023-05-13T11:25:07.500Z,75.17
2023-05-13T11:28:19.363Z,75.69
2023-05-13T11:31:35.289Z,74.65
2023-05-13T11:34:53.265Z,73.97
2023-05-13T11:38:03.732Z,72.26
2023-05-13T11:41:15.129Z,71.54
2023-05-13T11:44:25.883Z,69.54
2023-05-13T11:47:34.244Z,69.93
2023-05-13T11:50:42.684Z,68.02
2023-05-13T11:53:50.911Z,64.89
2023-05-13T11:57:00.885Z,63.31
2023-05-13T12:00:12.763Z,63.76
2023-05-13T12:03:21.325Z,60.81
2023-05-13T12:06:31.324Z,59.25
2023-05-13T12:09:39.808Z,60.87
2023-05-13T12:12:52.070Z,65.23
2023-05-13T12:16:00.420Z,65.90
2023-05-13T12:19:09.173Z,68.56
2023-05-13T12:22:17.735Z,69.00
2023-05-13T12:25:45.556Z,70.11
2023-05-13T12:29:00.255Z,70.12
2023-05-13T12:32:09.062Z,69.08
2023-05-13T12:35:17.577Z,69.92
2023-05-13T12:38:26.703Z,70.14
2023-05-13T12:41:36.939Z,69.83
2023-05-13T12:44:48.167Z,69.38
2023-05-13T12:47:56.934Z,67.52
2023-05-13T12:51:06.097Z,66.77
2023-05-13T12:54:14.703Z,65.71
2023-05-13T12:57:24.367Z,64.22
2023-05-13T13:00:34.346Z,64.76
2023-05-13T13:03:42.873Z,65.46
2023-05-13T13:06:51.422Z,66.31
2023-05-13T13:09:59.575Z,70.52
2023-05-13T13:13:07.983Z,70.77
2023-05-13T13:16:18.044Z,70.83
2023-05-13T13:19:26.358Z,69.39
2023-05-13T13:22:36.986Z,66.11
2023-05-13T13:25:45.512Z,66.44
2023-05-13T13:28:53.806Z,67.77
2023-05-13T13:32:04.096Z,69.02
2023-05-13T13:35:12.597Z,68.09
2023-05-13T13:38:20.828Z,68.68
2023-05-13T13:41:29.237Z,69.04
2023-05-13T13:44:39.666Z,68.25
2023-05-13T13:47:49.519Z,67.71
2023-05-13T13:50:58.711Z,66.73
2023-05-13T13:54:07.840Z,65.27
2023-05-13T13:57:16.674Z,67.97
2023-05-13T14:00:25.479Z,67.99
2023-05-13T14:03:35.115Z,70.69
2023-05-13T14:06:43.993Z,72.54
2023-05-13T14:09:52.636Z,73.06
2023-05-13T14:13:00.952Z,73.27
2023-05-13T14:16:09.534Z,72.44
2023-05-13T14:19:19.615Z,73.15
2023-05-13T14:22:28.125Z,73.52
2023-05-13T14:25:36.912Z,73.94
2023-05-13T14:28:45.863Z,72.52
2023-05-13T14:31:54.581Z,71.16
2023-05-13T14:35:04.344Z,71.95
2023-05-13T14:38:12.577Z,72.36
2023-05-13T14:41:22.632Z,71.61
2023-05-13T14:44:31.177Z,71.91
2023-05-13T14:47:39.801Z,73.58
2023-05-13T14:50:50.950Z,70.35
2023-05-13T14:53:59.490Z,72.37
2023-05-13T14:57:08.918Z,70.17
2023-05-13T15:00:18.704Z,67.94
2023-05-13T15:03:27.259Z,65.54
2023-05-13T15:06:38.918Z,65.37
2023-05-13T15:09:47.341Z,68.24
2023-05-13T15:12:55.726Z,67.21
2023-05-13T15:16:05.629Z,69.98
2023-05-13T15:19:14.262Z,69.35
2023-05-13T15:22:25.075Z,69.54
2023-05-13T15:25:33.627Z,69.65
2023-05-13T15:28:42.211Z,69.99
2023-05-13T15:31:51.750Z,69.73
2023-05-13T15:35:00.005Z,69.38
2023-05-13T15:38:10.792Z,68.84
2023-05-13T15:41:19.057Z,69.77
2023-05-13T15:44:27.984Z,68.88
2023-05-13T15:47:38.842Z,68.09
2023-05-13T15:50:48.019Z,68.48
2023-05-13T15:54:00.023Z,69.69
2023-05-13T15:57:09.194Z,70.69
2023-05-13T16:00:20.224Z,70.73
2023-05-13T16:03:29.573Z,69.55
2023-05-13T16:06:38.809Z,69.80
2023-05-13T16:09:49.024Z,70.09
2023-05-13T16:12:58.078Z,69.08
2023-05-13T16:16:08.022Z,69.68
2023-05-13T16:19:16.661Z,70.04
2023-05-13T16:22:32.545Z,68.48
2023-05-13T16:25:44.430Z,69.12
2023-05-13T16:28:53.370Z,69.22
2023-05-13T16:32:01.752Z,69.30
2023-05-13T16:35:12.893Z,69.32
2023-05-13T16:38:21.501Z,69.10
2023-05-13T16:41:31.205Z,69.55
2023-05-13T16:44:39.804Z,70.21
2023-05-13T16:47:48.361Z,67.22
2023-05-13T16:50:56.965Z,61.61
2023-05-13T16:54:05.560Z,61.42
2023-05-13T16:57:16.219Z,61.77
2023-05-13T17:00:24.908Z,63.19
2023-05-13T17:03:33.419Z,63.93
2023-05-13T17:06:42.188Z,67.64
2023-05-13T17:09:51.266Z,68.01
2023-05-13T17:13:01.353Z,69.59
2023-05-13T17:16:10.759Z,70.69
2023-05-13T17:19:19.756Z,69.97
2023-05-13T17:22:28.343Z,71.71
2023-05-13T17:25:36.728Z,72.69
2023-05-13T17:28:46.716Z,74.33
2023-05-13T17:31:55.634Z,75.08
2023-05-13T17:35:06.245Z,75.50
2023-05-13T17:38:14.922Z,76.20
2023-05-13T17:41:23.188Z,76.31
2023-05-13T17:44:34.124Z,76.93
2023-05-13T17:47:42.897Z,76.64
2023-05-13T17:50:51.926Z,74.78
2023-05-13T17:54:00.247Z,75.31
2023-05-13T17:57:10.172Z,73.81
2023-05-13T18:00:21.226Z,73.28
2023-05-13T18:03:29.841Z,73.51
2023-05-13T18:06:38.613Z,74.01
2023-05-13T18:09:48.628Z,73.50
2023-05-13T18:12:58.484Z,75.07
2023-05-13T18:16:10.305Z,75.94
2023-05-13T18:19:20.004Z,76.19
2023-05-13T18:22:28.805Z,77.14
2023-05-13T18:25:45.425Z,77.11
2023-05-13T18:29:03.383Z,77.58
2023-05-13T18:32:13.211Z,78.51
2023-05-13T18:35:23.565Z,78.42
2023-05-13T18:38:31.816Z,78.83
2023-05-13T18:41:40.132Z,78.79
2023-05-13T18:44:48.637Z,79.17
2023-05-13T18:47:58.362Z,79.62
2023-05-13T18:51:11.943Z,76.94
2023-05-13T18:54:20.124Z,79.11
2023-05-13T18:57:28.471Z,78.40
2023-05-13T19:00:37.464Z,81.78
2023-05-13T19:03:47.919Z,82.36
2023-05-13T19:06:56.230Z,83.46
2023-05-13T19:10:05.212Z,82.77
2023-05-13T19:13:14.854Z,84.31
2023-05-13T19:16:23.330Z,84.14
2023-05-13T19:19:33.112Z,85.35
2023-05-13T19:22:41.583Z,85.25
2023-05-13T19:25:50.270Z,84.86
2023-05-13T19:28:58.961Z,84.68
2023-05-13T19:32:07.939Z,85.17
2023-05-13T19:35:18.015Z,85.18
2023-05-13T19:38:26.514Z,85.48
2023-05-13T19:41:35.057Z,85.44
2023-05-13T19:44:43.442Z,85.78
2023-05-13T19:47:52.715Z,85.81
2023-05-13T19:51:02.513Z,85.46
2023-05-13T19:54:11.781Z,86.33
2023-05-13T19:57:20.011Z,85.76
2023-05-13T20:00:28.811Z,85.48
2023-05-13T20:03:37.098Z,85.67
2023-05-13T20:06:46.868Z,86.02
2023-05-13T20:09:55.469Z,85.98
2023-05-13T20:13:04.709Z,85.64
2023-05-13T20:16:13.375Z,86.15
2023-05-13T20:19:22.551Z,85.69
2023-05-13T20:22:32.359Z,85.85
2023-05-13T20:25:40.778Z,86.45
2023-05-13T20:28:51.364Z,87.17
2023-05-13T20:31:59.494Z,86.91
2023-05-13T20:35:10.116Z,87.35
2023-05-13T20:38:21.277Z,87.85
2023-05-13T20:41:29.676Z,87.13
2023-05-13T20:44:38.159Z,87.93
2023-05-13T20:47:46.640Z,87.03
2023-05-13T20:51:00.312Z,86.69
2023-05-13T20:54:13.124Z,86.54
2023-05-13T20:57:21.396Z,86.48
2023-05-13T21:00:29.659Z,86.85
2023-05-13T21:03:37.866Z,86.73
2023-05-13T21:06:46.232Z,87.32
2023-05-13T21:09:55.681Z,86.94
2023-05-13T21:13:03.885Z,86.45
2023-05-13T21:16:12.063Z,86.24
2023-05-13T21:19:22.286Z,86.14
2023-05-13T21:22:30.560Z,86.26
2023-05-13T21:25:40.376Z,86.61
2023-05-13T21:28:48.491Z,86.26
2023-05-13T21:31:57.042Z,85.28
2023-05-13T21:35:06.389Z,86.70
2023-05-13T21:38:14.643Z,86.66
2023-05-13T21:41:24.373Z,86.67
2023-05-13T21:44:32.887Z,86.04
2023-05-13T21:47:41.378Z,86.81
2023-05-13T21:50:49.605Z,87.33
2023-05-13T21:53:57.681Z,87.21
2023-05-13T21:57:07.882Z,87.37
2023-05-13T22:00:18.844Z,87.30
2023-05-13T22:03:27.265Z,86.81
2023-05-13T22:06:38.375Z,87.16
2023-05-13T22:09:48.431Z,87.54
2023-05-13T22:12:59.288Z,87.72
2023-05-13T22:16:07.746Z,87.66
2023-05-13T22:19:16.251Z,87.32
2023-05-13T22:22:24.599Z,87.41
2023-05-13T22:25:32.807Z,87.43
2023-05-13T22:28:42.221Z,87.91
2023-05-13T22:31:50.866Z,87.47
2023-05-13T22:34:59.187Z,87.72
2023-05-13T22:38:07.264Z,86.40
2023-05-13T22:41:15.657Z,87.18
2023-05-13T22:44:25.631Z,87.43
2023-05-13T22:47:34.257Z,87.61
2023-05-13T22:50:42.516Z,88.35
2023-05-13T22:53:50.611Z,89.02
2023-05-13T22:56:59.724Z,87.53
2023-05-13T23:00:12.244Z,87.97
2023-05-13T23:03:20.804Z,88.71
2023-05-13T23:06:28.923Z,87.43
2023-05-13T23:09:37.252Z,87.67
2023-05-13T23:12:45.364Z,87.68
2023-05-13T23:15:55.067Z,88.17
2023-05-13T23:19:03.801Z,87.50
2023-05-13T23:22:11.930Z,88.05
2023-05-13T23:25:20.842Z,87.68
2023-05-13T23:28:28.965Z,88.31
2023-05-13T23:31:41.271Z,88.62
2023-05-13T23:34:49.652Z,88.83
2023-05-13T23:37:58.023Z,88.37
2023-05-13T23:41:07.156Z,89.26
2023-05-13T23:44:15.352Z,88.46
2023-05-13T23:47:25.426Z,88.50
2023-05-13T23:50:33.980Z,88.41
2023-05-13T23:53:42.063Z,88.58
2023-05-13T23:56:50.583Z,88.84
2023-05-13T23:59:58.806Z,87.84
